Terminal Aerodrome Forecast
Issued by NWS

Home | Current Version | Previous Version | Graphics & Text | Print | Product List | Glossary On
Versions: 1 2 3 4 5 6 7 8 9 10 11 12 13 14 15 16
000
FTUS43 KTOP 301133
TAFMHK
TAF
KMHK 301133Z 3012/0112 23004KT P6SM FEW250
     FM301500 21008KT P6SM SCT250
     FM302000 18009KT P6SM SCT080=

USA.gov is the U.S. government's official web portal to all federal, state and local government web resources and services.